createdAt,value
2023-05-05T00:00:16.124Z,38.77
2023-05-05T00:02:44.748Z,38.87
2023-05-05T00:05:13.282Z,38.47
2023-05-05T00:07:42.009Z,41.04
2023-05-05T00:10:11.331Z,42.74
2023-05-05T00:12:39.810Z,44.94
2023-05-05T00:15:09.304Z,46.13
2023-05-05T00:17:39.216Z,47.35
2023-05-05T00:20:10.112Z,43.68
2023-05-05T00:22:38.762Z,41.68
2023-05-05T00:25:07.917Z,42.72
2023-05-05T00:27:37.419Z,42.12
2023-05-05T00:30:08.684Z,40.95
2023-05-05T00:32:38.707Z,41.53
2023-05-05T00:35:08.599Z,42.16
2023-05-05T00:37:37.628Z,41.99
2023-05-05T00:40:07.250Z,42.24
2023-05-05T00:42:43.286Z,41.72
2023-05-05T00:45:13.189Z,41.85
2023-05-05T00:47:44.304Z,40.63
2023-05-05T00:50:21.729Z,40.41
2023-05-05T00:52:50.772Z,40.50
2023-05-05T00:55:19.759Z,40.12
2023-05-05T00:57:49.932Z,40.06
2023-05-05T01:00:19.154Z,39.65
2023-05-05T01:02:49.094Z,40.37
2023-05-05T01:05:19.188Z,41.08
2023-05-05T01:07:58.965Z,41.46
2023-05-05T01:10:36.886Z,41.23
2023-05-05T01:13:16.233Z,41.46
2023-05-05T01:15:50.889Z,41.56
2023-05-05T01:18:28.685Z,41.52
2023-05-05T01:21:03.255Z,41.82
2023-05-05T01:23:48.955Z,42.02
2023-05-05T01:26:36.084Z,41.76
2023-05-05T01:29:25.303Z,42.04
2023-05-05T01:31:58.567Z,41.24
2023-05-05T01:34:33.547Z,41.49
2023-05-05T01:37:08.868Z,41.50
2023-05-05T01:39:38.943Z,41.59
2023-05-05T01:42:13.991Z,43.52
2023-05-05T01:44:44.783Z,43.57
2023-05-05T01:47:17.146Z,43.03
2023-05-05T01:49:47.932Z,42.24
2023-05-05T01:52:17.943Z,41.40
2023-05-05T01:54:49.237Z,41.24
2023-05-05T01:57:19.359Z,42.61
2023-05-05T01:59:47.870Z,42.09
2023-05-05T02:02:20.189Z,42.15
2023-05-05T02:04:50.696Z,42.55
2023-05-05T02:07:20.902Z,42.90
2023-05-05T02:09:50.370Z,45.28
2023-05-05T02:12:21.292Z,46.82
2023-05-05T02:14:52.373Z,46.36
2023-05-05T02:17:23.835Z,46.65
2023-05-05T02:19:53.820Z,45.79
2023-05-05T02:22:22.331Z,46.85
2023-05-05T02:24:50.681Z,46.52
2023-05-05T02:27:24.389Z,47.05
2023-05-05T02:29:58.755Z,44.58
2023-05-05T02:32:34.980Z,44.01
2023-05-05T02:35:10.967Z,44.44
2023-05-05T02:37:47.985Z,44.61
2023-05-05T02:40:22.159Z,45.68
2023-05-05T02:42:55.349Z,48.24
2023-05-05T02:45:30.174Z,48.20
2023-05-05T02:48:04.234Z,47.93
2023-05-05T02:50:36.572Z,44.18
2023-05-05T02:53:15.052Z,45.27
2023-05-05T02:55:51.820Z,42.22
2023-05-05T02:58:30.699Z,40.51
2023-05-05T03:01:08.489Z,38.98
2023-05-05T03:03:44.480Z,38.61
2023-05-05T03:06:18.749Z,38.00
2023-05-05T03:08:55.131Z,36.70
2023-05-05T03:11:28.819Z,36.29
2023-05-05T03:14:07.225Z,39.77
2023-05-05T03:16:38.126Z,41.85
2023-05-05T03:19:11.601Z,42.70
2023-05-05T03:21:41.423Z,43.02
2023-05-05T03:24:15.579Z,42.05
2023-05-05T03:26:48.527Z,42.73
2023-05-05T03:29:18.434Z,43.40
2023-05-05T03:31:46.868Z,43.29
2023-05-05T03:34:16.842Z,44.04
2023-05-05T03:36:48.392Z,43.89
2023-05-05T03:39:18.950Z,44.49
2023-05-05T03:41:48.446Z,45.36
2023-05-05T03:44:17.965Z,44.61
2023-05-05T03:46:46.518Z,44.79
2023-05-05T03:49:18.022Z,44.10
2023-05-05T03:51:48.554Z,45.18
2023-05-05T03:54:17.240Z,43.82
2023-05-05T03:56:45.767Z,45.35
2023-05-05T03:59:14.213Z,45.02
2023-05-05T04:01:42.910Z,45.75
2023-05-05T04:04:11.530Z,46.27
2023-05-05T04:06:41.367Z,46.30
2023-05-05T04:09:12.117Z,45.91
2023-05-05T04:11:40.567Z,45.72
2023-05-05T04:14:09.173Z,45.47
2023-05-05T04:16:37.680Z,45.51
2023-05-05T04:19:06.255Z,43.98
2023-05-05T04:21:34.837Z,44.17
2023-05-05T04:24:04.726Z,43.74
2023-05-05T04:26:33.148Z,44.36
2023-05-05T04:29:01.691Z,44.06
2023-05-05T04:31:32.125Z,44.02
2023-05-05T04:34:01.228Z,44.08
2023-05-05T04:36:32.705Z,44.72
2023-05-05T04:39:03.791Z,45.09
2023-05-05T04:41:34.248Z,45.66
2023-05-05T04:44:02.941Z,46.25
2023-05-05T04:46:32.276Z,46.43
2023-05-05T04:49:03.549Z,46.61
2023-05-05T04:51:42.854Z,45.82
2023-05-05T04:54:11.072Z,46.46
2023-05-05T04:57:06.564Z,44.85
2023-05-05T04:59:41.354Z,46.23
2023-05-05T05:02:10.096Z,46.04
2023-05-05T05:04:38.664Z,46.55
2023-05-05T05:07:07.100Z,45.11
2023-05-05T05:09:35.631Z,44.40
2023-05-05T05:12:08.059Z,44.68
2023-05-05T05:14:38.584Z,45.35
2023-05-05T05:17:07.596Z,47.04
2023-05-05T05:19:36.170Z,45.83
2023-05-05T05:22:05.353Z,46.67
2023-05-05T05:24:36.550Z,45.90
2023-05-05T05:27:10.181Z,46.77
2023-05-05T05:29:41.064Z,46.43
2023-05-05T05:32:09.710Z,46.95
2023-05-05T05:34:41.329Z,47.06
2023-05-05T05:37:11.241Z,46.09
2023-05-05T05:39:41.921Z,46.83
2023-05-05T05:42:13.160Z,46.09
2023-05-05T05:44:42.007Z,46.11
2023-05-05T05:47:13.574Z,47.48
2023-05-05T05:49:42.111Z,46.58
2023-05-05T05:52:11.056Z,45.59
2023-05-05T05:54:40.194Z,45.47
2023-05-05T05:57:09.754Z,45.99
2023-05-05T05:59:39.749Z,45.30
2023-05-05T06:02:09.721Z,44.56
2023-05-05T06:04:41.443Z,43.95
2023-05-05T06:07:11.260Z,45.08
2023-05-05T06:09:39.747Z,45.97
2023-05-05T06:12:08.394Z,43.87
2023-05-05T06:14:37.086Z,43.73
2023-05-05T06:17:07.174Z,45.05
2023-05-05T06:19:39.396Z,43.20
2023-05-05T06:22:08.331Z,44.24
2023-05-05T06:24:37.522Z,44.50
2023-05-05T06:27:06.071Z,42.64
2023-05-05T06:29:34.493Z,43.00
2023-05-05T06:32:02.817Z,42.72
2023-05-05T06:34:32.704Z,43.71
2023-05-05T06:37:01.227Z,42.69
2023-05-05T06:39:29.582Z,43.11
2023-05-05T06:41:58.052Z,44.48
2023-05-05T06:44:26.408Z,43.39
2023-05-05T06:46:55.473Z,42.89
2023-05-05T06:49:23.982Z,42.06
2023-05-05T06:51:53.729Z,42.28
2023-05-05T06:54:22.207Z,43.79
2023-05-05T06:56:50.500Z,43.63
2023-05-05T06:59:18.917Z,43.98
2023-05-05T07:01:47.639Z,44.05
2023-05-05T07:04:16.547Z,44.57
2023-05-05T07:06:44.688Z,43.09
2023-05-05T07:09:16.888Z,44.52
2023-05-05T07:11:45.615Z,45.07
2023-05-05T07:14:14.034Z,44.25
2023-05-05T07:16:42.407Z,44.34
2023-05-05T07:19:10.777Z,43.84
2023-05-05T07:21:39.910Z,43.67
2023-05-05T07:24:09.876Z,43.23
2023-05-05T07:26:39.938Z,44.08
2023-05-05T07:29:08.615Z,45.28
2023-05-05T07:31:37.008Z,44.26
2023-05-05T07:34:07.338Z,43.19
2023-05-05T07:36:35.918Z,43.60
2023-05-05T07:39:05.914Z,44.60
2023-05-05T07:41:34.878Z,43.85
2023-05-05T07:44:05.113Z,44.52
2023-05-05T07:46:33.774Z,43.05
2023-05-05T07:49:02.258Z,42.38
2023-05-05T07:51:33.271Z,41.42
2023-05-05T07:54:03.057Z,39.49
2023-05-05T07:56:31.457Z,39.19
2023-05-05T07:58:59.836Z,42.21
2023-05-05T08:01:29.658Z,41.12
2023-05-05T08:03:58.159Z,39.49
2023-05-05T08:06:28.687Z,40.06
2023-05-05T08:08:57.405Z,40.44
2023-05-05T08:11:29.457Z,41.59
2023-05-05T08:13:58.110Z,43.45
2023-05-05T08:16:26.532Z,45.86
2023-05-05T08:18:56.251Z,42.56
2023-05-05T08:21:24.590Z,42.51
2023-05-05T08:23:52.954Z,42.51
2023-05-05T08:26:22.984Z,42.62
2023-05-05T08:28:55.181Z,42.56
2023-05-05T08:31:23.838Z,42.86
2023-05-05T08:33:52.166Z,42.12
2023-05-05T08:36:22.064Z,42.14
2023-05-05T08:38:50.529Z,42.34
2023-05-05T08:41:20.127Z,42.25
2023-05-05T08:43:49.443Z,40.90
2023-05-05T08:46:18.092Z,42.43
2023-05-05T08:48:46.494Z,44.92
2023-05-05T08:51:19.258Z,43.41
2023-05-05T08:53:57.715Z,41.66
2023-05-05T08:56:28.698Z,42.34
2023-05-05T08:58:58.613Z,46.71
2023-05-05T09:01:27.490Z,47.70
2023-05-05T09:03:56.975Z,47.84
2023-05-05T09:06:26.995Z,50.91
2023-05-05T09:08:59.018Z,50.75
2023-05-05T09:11:28.229Z,50.26
2023-05-05T09:13:56.947Z,51.11
2023-05-05T09:16:25.434Z,51.14
2023-05-05T09:19:02.970Z,52.90
2023-05-05T09:21:32.200Z,51.75
2023-05-05T09:24:12.320Z,52.58
2023-05-05T09:26:43.642Z,51.76
2023-05-05T09:29:19.725Z,51.52
2023-05-05T09:32:05.846Z,51.50
2023-05-05T09:34:36.399Z,50.62
2023-05-05T09:37:06.197Z,49.95
2023-05-05T09:39:36.353Z,48.92
2023-05-05T09:42:05.006Z,47.27
2023-05-05T09:44:37.633Z,48.02
2023-05-05T09:47:18.150Z,45.80
2023-05-05T09:49:59.911Z,47.43
2023-05-05T09:52:29.254Z,46.77
2023-05-05T09:54:59.204Z,48.20
2023-05-05T09:57:29.305Z,46.46
2023-05-05T09:59:59.035Z,45.37
2023-05-05T10:02:34.774Z,45.69
2023-05-05T10:05:08.352Z,45.10
2023-05-05T10:07:38.225Z,42.57
2023-05-05T10:10:10.523Z,41.82
2023-05-05T10:12:40.530Z,41.05
2023-05-05T10:15:10.660Z,41.93
2023-05-05T10:17:57.941Z,40.84
2023-05-05T10:20:36.470Z,39.60
2023-05-05T10:23:08.761Z,38.24
2023-05-05T10:25:43.681Z,41.05
2023-05-05T10:28:17.947Z,40.35
2023-05-05T10:30:50.694Z,37.76
2023-05-05T10:33:31.914Z,40.65
2023-05-05T10:36:03.431Z,40.47
2023-05-05T10:38:32.773Z,39.48
2023-05-05T10:41:03.150Z,40.12
2023-05-05T10:43:32.332Z,40.11
2023-05-05T10:46:01.717Z,41.42
2023-05-05T10:48:39.228Z,42.02
2023-05-05T10:51:38.545Z,42.72
2023-05-05T10:54:15.424Z,41.94
2023-05-05T10:56:45.619Z,41.86
2023-05-05T10:59:41.665Z,41.39
2023-05-05T11:02:25.182Z,44.12
2023-05-05T11:05:15.312Z,42.34
2023-05-05T11:07:44.242Z,44.04
2023-05-05T11:10:13.896Z,44.09
2023-05-05T11:13:15.946Z,43.75
2023-05-05T11:15:45.967Z,43.60
2023-05-05T11:18:30.764Z,42.75
2023-05-05T11:21:17.012Z,43.33
2023-05-05T11:23:47.826Z,42.99
2023-05-05T11:26:17.627Z,41.38
2023-05-05T11:29:04.833Z,43.62
2023-05-05T11:31:34.934Z,42.29
2023-05-05T11:34:26.262Z,40.16
2023-05-05T11:37:01.674Z,40.39
2023-05-05T11:39:39.457Z,41.12
2023-05-05T11:42:32.003Z,41.35
2023-05-05T11:45:00.900Z,41.08
2023-05-05T11:47:31.161Z,41.43
2023-05-05T11:50:00.006Z,40.49
2023-05-05T11:52:28.723Z,39.27
2023-05-05T11:55:03.872Z,39.40
2023-05-05T11:57:32.751Z,38.81
2023-05-05T12:00:02.560Z,38.61
2023-05-05T12:02:37.307Z,38.69
2023-05-05T12:05:06.790Z,40.02
2023-05-05T12:07:35.202Z,39.86
2023-05-05T12:10:03.674Z,40.16
2023-05-05T12:12:37.182Z,40.31
2023-05-05T12:15:06.612Z,38.11
2023-05-05T12:17:42.627Z,40.70
2023-05-05T12:20:12.830Z,39.04
2023-05-05T12:22:41.917Z,40.02
2023-05-05T12:25:11.177Z,39.62
2023-05-05T12:27:39.849Z,40.35
2023-05-05T12:30:16.829Z,41.10
2023-05-05T12:32:47.269Z,38.57
2023-05-05T12:35:16.193Z,39.89
2023-05-05T12:37:44.889Z,40.18
2023-05-05T12:40:31.670Z,41.43
2023-05-05T12:43:00.235Z,41.33
2023-05-05T12:45:31.328Z,40.39
2023-05-05T12:48:01.287Z,40.80
2023-05-05T12:50:33.518Z,41.18
2023-05-05T12:53:02.021Z,41.57
2023-05-05T12:55:48.414Z,41.37
2023-05-05T12:58:16.855Z,40.66
2023-05-05T13:00:45.562Z,39.72
2023-05-05T13:03:21.727Z,40.17
2023-05-05T13:05:50.263Z,40.16
2023-05-05T13:08:18.670Z,38.46
2023-05-05T13:10:59.417Z,39.75
2023-05-05T13:13:27.875Z,38.90
2023-05-05T13:15:56.292Z,37.47
2023-05-05T13:18:26.155Z,36.56
2023-05-05T13:20:54.631Z,38.35
2023-05-05T13:23:24.119Z,37.94
2023-05-05T13:25:54.299Z,35.27
2023-05-05T13:28:22.704Z,33.93
2023-05-05T13:30:51.092Z,34.83
2023-05-05T13:33:19.457Z,34.00
2023-05-05T13:35:49.349Z,33.24
2023-05-05T13:38:17.784Z,33.18
2023-05-05T13:40:46.261Z,34.65
2023-05-05T13:43:14.708Z,34.51
2023-05-05T13:45:43.234Z,36.63
2023-05-05T13:48:11.796Z,34.68
2023-05-05T13:50:40.223Z,34.80
2023-05-05T13:53:10.159Z,35.67
2023-05-05T13:55:38.684Z,37.35
2023-05-05T13:58:08.804Z,35.92
2023-05-05T14:00:38.008Z,35.97
2023-05-05T14:03:06.856Z,37.33
2023-05-05T14:05:37.492Z,37.80
2023-05-05T14:08:06.120Z,37.09
2023-05-05T14:10:36.122Z,36.71
2023-05-05T14:13:07.469Z,37.61
2023-05-05T14:15:37.154Z,36.70
2023-05-05T14:18:05.846Z,36.29
2023-05-05T14:20:34.631Z,35.58
2023-05-05T14:23:02.993Z,35.67
2023-05-05T14:25:31.457Z,35.51
2023-05-05T14:28:01.302Z,36.24
2023-05-05T14:30:29.785Z,35.93
2023-05-05T14:32:58.252Z,35.84
2023-05-05T14:35:26.800Z,35.22
2023-05-05T14:37:55.248Z,35.68
2023-05-05T14:40:23.803Z,35.44
2023-05-05T14:42:52.267Z,35.10
2023-05-05T14:45:22.182Z,35.70
2023-05-05T14:47:50.823Z,36.70
2023-05-05T14:50:19.273Z,34.83
2023-05-05T14:52:47.782Z,36.23
2023-05-05T14:55:16.334Z,35.21
2023-05-05T14:57:44.774Z,34.69
2023-05-05T15:00:14.130Z,33.87
2023-05-05T15:02:44.169Z,34.51
2023-05-05T15:05:13.781Z,34.65
2023-05-05T15:07:42.251Z,33.52
2023-05-05T15:10:11.569Z,33.52
2023-05-05T15:12:40.227Z,32.72
2023-05-05T15:15:12.758Z,32.44
2023-05-05T15:17:41.949Z,32.03
2023-05-05T15:20:13.105Z,32.84
2023-05-05T15:22:41.872Z,32.80
2023-05-05T15:25:13.329Z,32.78
2023-05-05T15:27:42.127Z,32.87
2023-05-05T15:30:11.543Z,32.19
2023-05-05T15:32:40.062Z,32.49
2023-05-05T15:35:09.716Z,32.04
2023-05-05T15:37:39.698Z,32.39
2023-05-05T15:40:12.028Z,31.59
2023-05-05T15:42:40.619Z,32.12
2023-05-05T15:45:13.164Z,31.53
2023-05-05T15:47:41.888Z,31.56
2023-05-05T15:50:11.044Z,31.49
2023-05-05T15:52:41.060Z,30.96
2023-05-05T15:55:11.216Z,31.20
2023-05-05T15:57:40.569Z,31.64
2023-05-05T16:00:10.505Z,32.44
2023-05-05T16:02:39.118Z,32.25
2023-05-05T16:05:08.395Z,31.77
2023-05-05T16:07:37.071Z,32.25
2023-05-05T16:10:08.334Z,31.38
2023-05-05T16:12:36.874Z,32.32
2023-05-05T16:15:06.162Z,31.74
2023-05-05T16:17:36.556Z,31.95
2023-05-05T16:20:09.188Z,32.23
2023-05-05T16:22:37.714Z,32.28
2023-05-05T16:25:09.031Z,32.09
2023-05-05T16:27:37.832Z,31.17
2023-05-05T16:30:07.357Z,31.96
2023-05-05T16:32:35.986Z,32.07
2023-05-05T16:35:04.439Z,33.10
2023-05-05T16:37:33.002Z,32.82
2023-05-05T16:40:04.489Z,31.88
2023-05-05T16:42:34.365Z,32.24
2023-05-05T16:45:02.849Z,32.09
2023-05-05T16:47:31.401Z,32.71
2023-05-05T16:50:00.022Z,31.08
2023-05-05T16:52:28.608Z,31.23
2023-05-05T16:54:57.356Z,32.12
2023-05-05T16:57:25.567Z,32.33
2023-05-05T16:59:57.635Z,31.40
2023-05-05T17:02:26.296Z,31.30
2023-05-05T17:04:54.843Z,31.75
2023-05-05T17:07:23.487Z,31.74
2023-05-05T17:09:52.134Z,31.06
2023-05-05T17:12:20.711Z,30.93
2023-05-05T17:14:49.223Z,31.38
2023-05-05T17:17:19.045Z,31.06
2023-05-05T17:19:47.699Z,30.79
2023-05-05T17:22:16.739Z,30.98
2023-05-05T17:24:45.359Z,31.28
2023-05-05T17:27:14.079Z,33.24
2023-05-05T17:29:42.554Z,31.52
2023-05-05T17:32:12.412Z,30.74
2023-05-05T17:34:44.557Z,32.36
2023-05-05T17:37:13.112Z,31.38
2023-05-05T17:39:41.612Z,31.37
2023-05-05T17:42:10.109Z,31.73
2023-05-05T17:44:38.582Z,32.08
2023-05-05T17:47:07.859Z,31.84
2023-05-05T17:49:38.815Z,32.77
2023-05-05T17:52:08.693Z,32.95
2023-05-05T17:54:40.092Z,32.96
2023-05-05T17:57:08.626Z,33.56
2023-05-05T17:59:37.617Z,34.01
2023-05-05T18:02:08.934Z,32.76
2023-05-05T18:04:37.939Z,32.19
2023-05-05T18:07:06.602Z,31.54
2023-05-05T18:09:36.252Z,32.24
2023-05-05T18:12:08.240Z,32.04
2023-05-05T18:14:36.885Z,32.28
2023-05-05T18:17:05.520Z,33.04
2023-05-05T18:19:34.143Z,33.24
2023-05-05T18:22:02.852Z,32.55
2023-05-05T18:24:36.286Z,32.94
2023-05-05T18:27:07.390Z,33.13
2023-05-05T18:29:37.586Z,34.41
2023-05-05T18:32:09.523Z,34.30
2023-05-05T18:34:38.211Z,34.47
2023-05-05T18:37:06.774Z,35.29
2023-05-05T18:39:39.440Z,36.15
2023-05-05T18:42:13.059Z,36.36
2023-05-05T18:44:43.114Z,37.08
2023-05-05T18:47:12.032Z,36.75
2023-05-05T18:49:40.330Z,36.63
2023-05-05T18:52:08.836Z,35.66
2023-05-05T18:54:38.682Z,34.51
2023-05-05T18:57:07.636Z,33.54
2023-05-05T18:59:36.096Z,33.82
2023-05-05T19:02:04.687Z,33.72
2023-05-05T19:04:36.572Z,33.39
2023-05-05T19:07:05.519Z,33.42
2023-05-05T19:09:37.466Z,33.36
2023-05-05T19:12:08.067Z,33.47
2023-05-05T19:14:39.285Z,35.22
2023-05-05T19:17:08.316Z,36.64
2023-05-05T19:19:38.361Z,36.93
2023-05-05T19:22:06.988Z,35.77
2023-05-05T19:24:35.897Z,35.65
2023-05-05T19:27:04.658Z,35.13
2023-05-05T19:29:36.254Z,35.50
2023-05-05T19:32:05.095Z,35.73
2023-05-05T19:34:33.905Z,35.52
2023-05-05T19:37:02.258Z,35.27
2023-05-05T19:39:30.708Z,35.18
2023-05-05T19:41:59.109Z,35.76
2023-05-05T19:44:27.605Z,35.43
2023-05-05T19:46:57.582Z,34.13
2023-05-05T19:49:26.392Z,33.51
2023-05-05T19:51:54.611Z,33.75
2023-05-05T19:54:27.617Z,34.23
2023-05-05T19:56:57.401Z,34.31
2023-05-05T19:59:26.095Z,34.05
2023-05-05T20:01:54.559Z,34.16
2023-05-05T20:04:24.381Z,34.64
2023-05-05T20:06:52.982Z,34.75
2023-05-05T20:09:21.807Z,35.69
2023-05-05T20:11:51.060Z,35.57
2023-05-05T20:14:19.515Z,36.16
2023-05-05T20:16:48.031Z,36.92
2023-05-05T20:19:17.066Z,37.08
2023-05-05T20:21:47.139Z,37.44
2023-05-05T20:24:15.565Z,38.50
2023-05-05T20:26:44.010Z,38.26
2023-05-05T20:29:12.969Z,38.16
2023-05-05T20:31:41.587Z,38.91
2023-05-05T20:34:10.069Z,38.08
2023-05-05T20:36:38.542Z,38.08
2023-05-05T20:39:08.799Z,37.74
2023-05-05T20:41:40.275Z,38.00
2023-05-05T20:44:09.466Z,37.92
2023-05-05T20:46:37.939Z,38.07
2023-05-05T20:49:06.322Z,38.20
2023-05-05T20:51:35.240Z,38.59
2023-05-05T20:54:07.587Z,38.73
2023-05-05T20:56:36.076Z,38.95
2023-05-05T20:59:06.650Z,39.22
2023-05-05T21:01:37.842Z,39.27
2023-05-05T21:04:06.580Z,39.78
2023-05-05T21:06:34.704Z,39.87
2023-05-05T21:09:03.213Z,40.36
2023-05-05T21:11:33.162Z,40.56
2023-05-05T21:14:04.505Z,40.62
2023-05-05T21:16:33.227Z,41.18
2023-05-05T21:19:03.963Z,41.57
2023-05-05T21:21:33.168Z,41.53
2023-05-05T21:24:01.719Z,41.74
2023-05-05T21:26:30.162Z,41.88
2023-05-05T21:29:00.122Z,41.80
2023-05-05T21:31:28.710Z,42.34
2023-05-05T21:33:57.160Z,42.19
2023-05-05T21:36:25.651Z,42.16
2023-05-05T21:38:55.849Z,42.50
2023-05-05T21:41:25.213Z,42.46
2023-05-05T21:43:57.862Z,43.27
2023-05-05T21:46:28.039Z,43.52
2023-05-05T21:48:56.582Z,43.04
2023-05-05T21:51:27.729Z,43.44
2023-05-05T21:53:56.210Z,43.16
2023-05-05T21:56:24.605Z,43.36
2023-05-05T21:58:53.125Z,43.89
2023-05-05T22:01:21.624Z,44.15
2023-05-05T22:03:51.488Z,43.90
2023-05-05T22:06:20.585Z,43.91
2023-05-05T22:08:49.757Z,44.03
2023-05-05T22:11:20.631Z,44.18
2023-05-05T22:13:49.053Z,44.09
2023-05-05T22:16:18.580Z,44.13
2023-05-05T22:18:47.236Z,44.33
2023-05-05T22:21:19.973Z,44.46
2023-05-05T22:23:48.623Z,44.61
2023-05-05T22:26:17.001Z,44.81
2023-05-05T22:28:45.496Z,44.85
2023-05-05T22:31:14.075Z,45.24
2023-05-05T22:33:42.556Z,45.17
2023-05-05T22:36:11.726Z,45.13
2023-05-05T22:38:41.556Z,45.24
2023-05-05T22:41:10.166Z,45.57
2023-05-05T22:43:39.034Z,45.78
2023-05-05T22:46:07.578Z,45.97
2023-05-05T22:48:36.111Z,45.93
2023-05-05T22:51:04.574Z,45.86
2023-05-05T22:53:32.923Z,45.94
2023-05-05T22:56:02.824Z,45.93
2023-05-05T22:58:31.236Z,46.31
2023-05-05T23:00:59.779Z,46.18
2023-05-05T23:03:31.205Z,46.37
2023-05-05T23:05:59.694Z,46.43
2023-05-05T23:08:28.135Z,46.89
2023-05-05T23:10:57.394Z,47.11
2023-05-05T23:13:27.313Z,46.98
2023-05-05T23:15:55.900Z,47.10
2023-05-05T23:18:24.317Z,47.99
2023-05-05T23:20:52.775Z,47.70
2023-05-05T23:23:21.496Z,47.50
2023-05-05T23:25:51.552Z,47.37
2023-05-05T23:28:20.404Z,47.61
2023-05-05T23:30:50.285Z,48.05
2023-05-05T23:33:19.502Z,48.09
2023-05-05T23:35:48.605Z,48.42
2023-05-05T23:38:17.160Z,48.74
2023-05-05T23:40:45.584Z,49.12
2023-05-05T23:43:14.084Z,49.19
2023-05-05T23:45:42.565Z,49.01
2023-05-05T23:48:13.163Z,49.99
2023-05-05T23:50:41.582Z,49.76
2023-05-05T23:53:10.547Z,49.97
2023-05-05T23:55:38.927Z,49.84
2023-05-05T23:58:07.407Z,50.74
